VKG754 ESGG-LGSA
Flight info
| Callsign | VKG754 |
|---|---|
| Flight time | 3h 21m |
| Altitude | 35000 |
| Route | TOPLA DCT POKEN Z491 VAVUN L996 DENKO L616 DESEN DCT VALPI DCT PARAK DCT RAXAD DCT MAKED DCT ATV UP169 MANOK UL612 RUSOS |
| Aircraft | A21N/M-SDE2E3FGHIRWXY/LB1 |
Departure
| Time | 2026-05-07 17:23 |
|---|---|
| Airport | Göteborg Landvetter Airport (ESGG) |
Arrival
| Time | 2026-05-07 20:45 |
|---|---|
| Airport | Chania International Airport (LGSA) |
| Time | Latitude | Longitude | Altitude | Speed | Heading |
|---|---|---|---|---|---|
| 2026-05-07 16:58 | 57.66671 | 12.29209 | 521 ft | 0 kts | 116° |
| 2026-05-07 17:11 | 57.66678 | 12.29181 | 521 ft | 4 kts | 116° |
| 2026-05-07 17:11 | 57.66690 | 12.29136 | 521 ft | 3 kts | 116° |
| 2026-05-07 17:11 | 57.66697 | 12.29101 | 521 ft | 4 kts | 88° |
| 2026-05-07 17:12 | 57.66688 | 12.29071 | 521 ft | 3 kts | 26° |
| 2026-05-07 17:12 | 57.66680 | 12.29064 | 521 ft | 4 kts | 26° |
| 2026-05-07 17:16 | 57.66686 | 12.29069 | 521 ft | 2 kts | 26° |
| 2026-05-07 17:16 | 57.66708 | 12.29089 | 521 ft | 5 kts | 26° |
| 2026-05-07 17:16 | 57.66745 | 12.29123 | 521 ft | 7 kts | 24° |
| 2026-05-07 17:17 | 57.66785 | 12.29067 | 521 ft | 9 kts | 296° |
| 2026-05-07 17:17 | 57.66833 | 12.29000 | 521 ft | 10 kts | 10° |
| 2026-05-07 17:17 | 57.66902 | 12.29057 | 521 ft | 12 kts | 26° |
| 2026-05-07 17:17 | 57.66978 | 12.29127 | 521 ft | 13 kts | 26° |
| 2026-05-07 17:18 | 57.67060 | 12.29202 | 521 ft | 14 kts | 26° |
| 2026-05-07 17:18 | 57.67150 | 12.29284 | 521 ft | 15 kts | 26° |
| 2026-05-07 17:18 | 57.67244 | 12.29369 | 521 ft | 15 kts | 26° |
| 2026-05-07 17:18 | 57.67342 | 12.29458 | 521 ft | 14 kts | 26° |
| 2026-05-07 17:19 | 57.67397 | 12.29488 | 521 ft | 7 kts | 344° |
| 2026-05-07 17:19 | 57.67426 | 12.29417 | 521 ft | 8 kts | 296° |
| 2026-05-07 17:19 | 57.67443 | 12.29353 | 521 ft | 5 kts | 296° |
| 2026-05-07 17:19 | 57.67460 | 12.29287 | 521 ft | 6 kts | 289° |
| 2026-05-07 17:20 | 57.67461 | 12.29262 | 521 ft | 0 kts | 266° |
| 2026-05-07 17:21 | 57.67461 | 12.29254 | 521 ft | 2 kts | 266° |
| 2026-05-07 17:21 | 57.67460 | 12.29216 | 520 ft | 4 kts | 266° |
| 2026-05-07 17:21 | 57.67456 | 12.29141 | 519 ft | 7 kts | 261° |
| 2026-05-07 17:22 | 57.67433 | 12.29038 | 521 ft | 10 kts | 231° |
| 2026-05-07 17:22 | 57.67402 | 12.28997 | 520 ft | 0 kts | 206° |
| 2026-05-07 17:22 | 57.67374 | 12.28973 | 520 ft | 23 kts | 206° |
| 2026-05-07 17:23 | 57.66998 | 12.28631 | 520 ft | 95 kts | 207° |
| 2026-05-07 17:23 | 57.66224 | 12.27924 | 515 ft | 150 kts | 205° |
| 2026-05-07 17:23 | 57.65229 | 12.27028 | 895 ft | 158 kts | 209° |
| 2026-05-07 17:23 | 57.64222 | 12.26131 | 1464 ft | 165 kts | 209° |
| 2026-05-07 17:24 | 57.63141 | 12.25157 | 1866 ft | 183 kts | 208° |
| 2026-05-07 17:24 | 57.61916 | 12.24049 | 2180 ft | 206 kts | 208° |
| 2026-05-07 17:24 | 57.60540 | 12.23044 | 2713 ft | 221 kts | 192° |
| 2026-05-07 17:24 | 57.58909 | 12.22813 | 3002 ft | 248 kts | 183° |
| 2026-05-07 17:25 | 57.57141 | 12.22666 | 3597 ft | 259 kts | 183° |
| 2026-05-07 17:25 | 57.55353 | 12.22568 | 4403 ft | 261 kts | 178° |
| 2026-05-07 17:25 | 57.53545 | 12.22958 | 5243 ft | 262 kts | 170° |
| 2026-05-07 17:25 | 57.51742 | 12.23512 | 6052 ft | 264 kts | 170° |
| 2026-05-07 17:26 | 57.49965 | 12.24401 | 6804 ft | 266 kts | 156° |
| 2026-05-07 17:26 | 57.48290 | 12.25942 | 7513 ft | 271 kts | 153° |
| 2026-05-07 17:26 | 57.46607 | 12.27584 | 8222 ft | 276 kts | 153° |
| 2026-05-07 17:26 | 57.44887 | 12.29238 | 8951 ft | 280 kts | 153° |
| 2026-05-07 17:27 | 57.43125 | 12.30912 | 9675 ft | 285 kts | 155° |
| 2026-05-07 17:27 | 57.41351 | 12.32584 | 10325 ft | 293 kts | 154° |
| 2026-05-07 17:27 | 57.39475 | 12.34339 | 10667 ft | 311 kts | 155° |
| 2026-05-07 17:27 | 57.37480 | 12.36195 | 10951 ft | 331 kts | 155° |
| 2026-05-07 17:28 | 57.35363 | 12.38164 | 11220 ft | 350 kts | 155° |
| 2026-05-07 17:28 | 57.33135 | 12.40234 | 11485 ft | 367 kts | 155° |
| 2026-05-07 17:28 | 57.30825 | 12.42374 | 12000 ft | 374 kts | 155° |
| 2026-05-07 17:28 | 57.28483 | 12.44532 | 12654 ft | 378 kts | 155° |
| 2026-05-07 17:29 | 57.26120 | 12.46705 | 13298 ft | 381 kts | 155° |
| 2026-05-07 17:29 | 57.23730 | 12.48900 | 13938 ft | 385 kts | 155° |
| 2026-05-07 17:29 | 57.21320 | 12.51115 | 14479 ft | 389 kts | 155° |
| 2026-05-07 17:29 | 57.18886 | 12.53351 | 15022 ft | 392 kts | 155° |
| 2026-05-07 17:30 | 57.16452 | 12.55588 | 15527 ft | 395 kts | 155° |
| 2026-05-07 17:30 | 57.13963 | 12.57867 | 16032 ft | 399 kts | 155° |
| 2026-05-07 17:30 | 57.11467 | 12.60149 | 16530 ft | 402 kts | 155° |
| 2026-05-07 17:30 | 57.08956 | 12.62444 | 17023 ft | 405 kts | 155° |
| 2026-05-07 17:31 | 57.06422 | 12.64755 | 17511 ft | 408 kts | 155° |
| 2026-05-07 17:31 | 57.03870 | 12.67080 | 17995 ft | 411 kts | 155° |
| 2026-05-07 17:31 | 57.01301 | 12.69414 | 18458 ft | 413 kts | 155° |
| 2026-05-07 17:31 | 56.98712 | 12.71760 | 18866 ft | 416 kts | 155° |
| 2026-05-07 17:32 | 56.96111 | 12.74115 | 19280 ft | 418 kts | 155° |
| 2026-05-07 17:32 | 56.93497 | 12.76479 | 19678 ft | 421 kts | 155° |
| 2026-05-07 17:32 | 56.90894 | 12.78833 | 20070 ft | 423 kts | 155° |
| 2026-05-07 17:32 | 56.89105 | 12.80448 | 20324 ft | 425 kts | 155° |
| 2026-05-07 17:33 | 56.85542 | 12.83656 | 20834 ft | 429 kts | 155° |
| 2026-05-07 17:33 | 56.82859 | 12.86067 | 21218 ft | 431 kts | 155° |
| 2026-05-07 17:33 | 56.80190 | 12.88464 | 21596 ft | 434 kts | 155° |
| 2026-05-07 17:33 | 56.77433 | 12.90936 | 21988 ft | 437 kts | 155° |
| 2026-05-07 17:34 | 56.74735 | 12.93350 | 22374 ft | 440 kts | 155° |
| 2026-05-07 17:34 | 56.71982 | 12.95810 | 22764 ft | 442 kts | 155° |
| 2026-05-07 17:34 | 56.69210 | 12.98280 | 23161 ft | 445 kts | 155° |
| 2026-05-07 17:34 | 56.66419 | 13.00765 | 23573 ft | 447 kts | 155° |
| 2026-05-07 17:35 | 56.63617 | 13.03257 | 23930 ft | 450 kts | 155° |
| 2026-05-07 17:35 | 56.60794 | 13.05761 | 24275 ft | 452 kts | 155° |
| 2026-05-07 17:35 | 56.57963 | 13.08271 | 24616 ft | 455 kts | 155° |
| 2026-05-07 17:35 | 56.55109 | 13.10797 | 24950 ft | 457 kts | 155° |
| 2026-05-07 17:36 | 56.53176 | 13.12503 | 25186 ft | 458 kts | 155° |
| 2026-05-07 17:36 | 56.50300 | 13.15033 | 25534 ft | 460 kts | 155° |
| 2026-05-07 17:36 | 56.47412 | 13.17576 | 25868 ft | 463 kts | 155° |
| 2026-05-07 17:36 | 56.44510 | 13.20130 | 26193 ft | 465 kts | 155° |
| 2026-05-07 17:37 | 56.41596 | 13.22689 | 26527 ft | 467 kts | 155° |
| 2026-05-07 17:37 | 56.38672 | 13.25249 | 26856 ft | 468 kts | 154° |
| 2026-05-07 17:37 | 56.35738 | 13.27817 | 27154 ft | 470 kts | 154° |
| 2026-05-07 17:37 | 56.32796 | 13.30387 | 27467 ft | 471 kts | 155° |
| 2026-05-07 17:38 | 56.29837 | 13.32962 | 27805 ft | 471 kts | 155° |
| 2026-05-07 17:38 | 56.26937 | 13.35483 | 28250 ft | 469 kts | 154° |
| 2026-05-07 17:38 | 56.24006 | 13.38029 | 28693 ft | 466 kts | 154° |
| 2026-05-07 17:38 | 56.21086 | 13.40561 | 29086 ft | 465 kts | 154° |
| 2026-05-07 17:39 | 56.18174 | 13.43084 | 29441 ft | 465 kts | 154° |
| 2026-05-07 17:39 | 56.15257 | 13.45604 | 29713 ft | 466 kts | 154° |
| 2026-05-07 17:39 | 56.12338 | 13.48122 | 30006 ft | 467 kts | 154° |
| 2026-05-07 17:39 | 56.09418 | 13.50635 | 30410 ft | 464 kts | 154° |
| 2026-05-07 17:40 | 56.06514 | 13.53133 | 30768 ft | 462 kts | 154° |
| 2026-05-07 17:40 | 56.03618 | 13.55616 | 30992 ft | 463 kts | 154° |
| 2026-05-07 17:40 | 56.00704 | 13.58110 | 31206 ft | 465 kts | 154° |
| 2026-05-07 17:40 | 55.97788 | 13.60598 | 31481 ft | 464 kts | 154° |
| 2026-05-07 17:41 | 55.94875 | 13.63081 | 31793 ft | 463 kts | 154° |
| 2026-05-07 17:41 | 55.91935 | 13.65583 | 32148 ft | 461 kts | 154° |
| 2026-05-07 17:41 | 55.89078 | 13.68010 | 32397 ft | 460 kts | 154° |
| 2026-05-07 17:41 | 55.86195 | 13.70458 | 32696 ft | 459 kts | 153° |
| 2026-05-07 17:42 | 55.83315 | 13.72902 | 32958 ft | 458 kts | 153° |
| 2026-05-07 17:42 | 55.80442 | 13.75337 | 33214 ft | 457 kts | 153° |
| 2026-05-07 17:42 | 55.77575 | 13.77765 | 33497 ft | 456 kts | 153° |
| 2026-05-07 17:42 | 55.74714 | 13.80180 | 33745 ft | 455 kts | 153° |
| 2026-05-07 17:43 | 55.71856 | 13.82592 | 33867 ft | 455 kts | 153° |
| 2026-05-07 17:43 | 55.68999 | 13.85000 | 33607 ft | 454 kts | 153° |
| 2026-05-07 17:43 | 55.66145 | 13.87401 | 33282 ft | 454 kts | 153° |
| 2026-05-07 17:43 | 55.63286 | 13.89800 | 33235 ft | 456 kts | 153° |
| 2026-05-07 17:44 | 55.60414 | 13.92205 | 33429 ft | 456 kts | 153° |
| 2026-05-07 17:44 | 55.57546 | 13.94602 | 33666 ft | 455 kts | 153° |
| 2026-05-07 17:44 | 55.54679 | 13.96996 | 33894 ft | 455 kts | 153° |
| 2026-05-07 17:44 | 55.51832 | 13.99369 | 34094 ft | 454 kts | 153° |
| 2026-05-07 17:45 | 55.48960 | 14.01758 | 34288 ft | 454 kts | 154° |
| 2026-05-07 17:45 | 55.46106 | 14.04129 | 34491 ft | 452 kts | 155° |
| 2026-05-07 17:45 | 55.43264 | 14.06480 | 34679 ft | 451 kts | 155° |
| 2026-05-07 17:45 | 55.40432 | 14.08825 | 34831 ft | 450 kts | 155° |
| 2026-05-07 17:46 | 55.37593 | 14.11173 | 34982 ft | 450 kts | 155° |
| 2026-05-07 17:46 | 55.34762 | 14.13512 | 35099 ft | 450 kts | 155° |
| 2026-05-07 17:46 | 55.29086 | 14.18183 | 35167 ft | 450 kts | 155° |
| 2026-05-07 17:47 | 55.23404 | 14.22846 | 35143 ft | 450 kts | 155° |
| 2026-05-07 17:47 | 55.17723 | 14.27492 | 35142 ft | 450 kts | 155° |
| 2026-05-07 17:48 | 55.12074 | 14.32099 | 35144 ft | 450 kts | 155° |
| 2026-05-07 17:48 | 55.06381 | 14.36723 | 35137 ft | 450 kts | 155° |
| 2026-05-07 17:49 | 55.00715 | 14.41316 | 35138 ft | 449 kts | 156° |
| 2026-05-07 17:49 | 54.95055 | 14.45890 | 35142 ft | 450 kts | 156° |
| 2026-05-07 17:50 | 54.89388 | 14.50449 | 35142 ft | 448 kts | 156° |
| 2026-05-07 17:50 | 54.83728 | 14.54984 | 35141 ft | 448 kts | 156° |
| 2026-05-07 17:51 | 54.77935 | 14.58924 | 35140 ft | 447 kts | 161° |
| 2026-05-07 17:51 | 54.72074 | 14.62515 | 35140 ft | 447 kts | 161° |
| 2026-05-07 17:52 | 54.66212 | 14.66109 | 35139 ft | 447 kts | 161° |
| 2026-05-07 17:52 | 54.60356 | 14.69709 | 35133 ft | 444 kts | 162° |
| 2026-05-07 17:53 | 54.54560 | 14.73253 | 35134 ft | 442 kts | 162° |
| 2026-05-07 17:53 | 54.48806 | 14.76751 | 35136 ft | 442 kts | 162° |
| 2026-05-07 17:54 | 54.43016 | 14.80262 | 35131 ft | 442 kts | 162° |
| 2026-05-07 17:54 | 54.37223 | 14.83769 | 35136 ft | 442 kts | 162° |
| 2026-05-07 17:55 | 54.31430 | 14.87267 | 35128 ft | 443 kts | 162° |
| 2026-05-07 17:55 | 54.25626 | 14.90737 | 35127 ft | 443 kts | 163° |
| 2026-05-07 17:56 | 54.19796 | 14.94052 | 35124 ft | 442 kts | 163° |
| 2026-05-07 17:56 | 54.13963 | 14.97374 | 35114 ft | 442 kts | 163° |
| 2026-05-07 17:57 | 54.09113 | 15.00134 | 35117 ft | 437 kts | 163° |
| 2026-05-07 17:57 | 54.02372 | 15.03858 | 35120 ft | 439 kts | 164° |
| 2026-05-07 17:58 | 53.96561 | 15.07002 | 35113 ft | 439 kts | 164° |
| 2026-05-07 17:58 | 53.90741 | 15.10156 | 35111 ft | 439 kts | 164° |
| 2026-05-07 17:59 | 53.84928 | 15.13299 | 35111 ft | 439 kts | 164° |
| 2026-05-07 17:59 | 53.79113 | 15.16432 | 35109 ft | 439 kts | 164° |
| 2026-05-07 18:00 | 53.73293 | 15.19566 | 35101 ft | 439 kts | 164° |
| 2026-05-07 18:00 | 53.67471 | 15.22687 | 35100 ft | 439 kts | 164° |
| 2026-05-07 18:01 | 53.61647 | 15.25794 | 35101 ft | 440 kts | 164° |
| 2026-05-07 18:01 | 53.55807 | 15.28903 | 35098 ft | 440 kts | 164° |
| 2026-05-07 18:02 | 53.47083 | 15.33674 | 35095 ft | 440 kts | 159° |
| 2026-05-07 18:03 | 53.41478 | 15.37924 | 35087 ft | 441 kts | 157° |
| 2026-05-07 18:03 | 53.35932 | 15.42219 | 35091 ft | 441 kts | 157° |
| 2026-05-07 18:04 | 53.30342 | 15.46491 | 35089 ft | 441 kts | 157° |
| 2026-05-07 18:04 | 53.24714 | 15.50778 | 35090 ft | 442 kts | 157° |
| 2026-05-07 18:05 | 53.19182 | 15.54995 | 35083 ft | 437 kts | 158° |
| 2026-05-07 18:05 | 53.13636 | 15.59212 | 35082 ft | 438 kts | 158° |
| 2026-05-07 18:06 | 53.08080 | 15.63423 | 35081 ft | 438 kts | 158° |
| 2026-05-07 18:06 | 53.02529 | 15.67615 | 35078 ft | 438 kts | 158° |
| 2026-05-07 18:07 | 52.96975 | 15.71790 | 35081 ft | 438 kts | 158° |
| 2026-05-07 18:07 | 52.91411 | 15.75962 | 35082 ft | 441 kts | 158° |
| 2026-05-07 18:08 | 52.85829 | 15.80135 | 35071 ft | 440 kts | 158° |
| 2026-05-07 18:08 | 52.80249 | 15.84231 | 35070 ft | 436 kts | 159° |
| 2026-05-07 18:09 | 52.74672 | 15.88147 | 35067 ft | 435 kts | 159° |
| 2026-05-07 18:09 | 52.69087 | 15.92056 | 35068 ft | 436 kts | 159° |
| 2026-05-07 18:10 | 52.63502 | 15.95955 | 35061 ft | 438 kts | 160° |
| 2026-05-07 18:10 | 52.57908 | 15.99843 | 35062 ft | 437 kts | 160° |
| 2026-05-07 18:11 | 52.52311 | 16.03724 | 35059 ft | 437 kts | 160° |
| 2026-05-07 18:11 | 52.46706 | 16.07607 | 35058 ft | 437 kts | 160° |
| 2026-05-07 18:12 | 52.41146 | 16.11445 | 35050 ft | 434 kts | 160° |
| 2026-05-07 18:12 | 52.35593 | 16.15277 | 35058 ft | 433 kts | 160° |
| 2026-05-07 18:13 | 52.30047 | 16.19077 | 35057 ft | 433 kts | 160° |
| 2026-05-07 18:13 | 52.24499 | 16.22874 | 35056 ft | 432 kts | 160° |
| 2026-05-07 18:14 | 52.18941 | 16.26665 | 35056 ft | 432 kts | 160° |
| 2026-05-07 18:14 | 52.13382 | 16.30449 | 35056 ft | 433 kts | 160° |
| 2026-05-07 18:15 | 52.07842 | 16.34211 | 35052 ft | 430 kts | 160° |
| 2026-05-07 18:15 | 52.02300 | 16.37962 | 35034 ft | 430 kts | 160° |
| 2026-05-07 18:16 | 51.97698 | 16.41074 | 35044 ft | 428 kts | 161° |
| 2026-05-07 18:16 | 51.92232 | 16.44759 | 35049 ft | 428 kts | 161° |
| 2026-05-07 18:17 | 51.86734 | 16.48455 | 35050 ft | 427 kts | 161° |
| 2026-05-07 18:17 | 51.81232 | 16.52142 | 35047 ft | 429 kts | 161° |
| 2026-05-07 18:18 | 51.75705 | 16.55833 | 35044 ft | 429 kts | 161° |
| 2026-05-07 18:18 | 51.70211 | 16.59500 | 35043 ft | 429 kts | 161° |
| 2026-05-07 18:19 | 51.64697 | 16.63170 | 35040 ft | 429 kts | 161° |
| 2026-05-07 18:19 | 51.59215 | 16.66804 | 35034 ft | 421 kts | 161° |
| 2026-05-07 18:20 | 51.53768 | 16.70397 | 35038 ft | 422 kts | 161° |
| 2026-05-07 18:20 | 51.48328 | 16.73976 | 35039 ft | 423 kts | 161° |
| 2026-05-07 18:21 | 51.42884 | 16.77556 | 35032 ft | 423 kts | 161° |
| 2026-05-07 18:21 | 51.37440 | 16.81128 | 35034 ft | 423 kts | 161° |
| 2026-05-07 18:22 | 51.31989 | 16.84694 | 35031 ft | 423 kts | 161° |
| 2026-05-07 18:22 | 51.26531 | 16.88252 | 35045 ft | 426 kts | 161° |
| 2026-05-07 18:23 | 51.21055 | 16.91818 | 35042 ft | 420 kts | 161° |
| 2026-05-07 18:23 | 51.15656 | 16.95328 | 35054 ft | 420 kts | 161° |
| 2026-05-07 18:24 | 51.10252 | 16.98832 | 35059 ft | 419 kts | 161° |
| 2026-05-07 18:24 | 51.04848 | 17.02325 | 35051 ft | 419 kts | 161° |
| 2026-05-07 18:25 | 50.99425 | 17.05819 | 35043 ft | 422 kts | 161° |
| 2026-05-07 18:25 | 50.93977 | 17.09327 | 35044 ft | 422 kts | 161° |
| 2026-05-07 18:26 | 50.88554 | 17.12810 | 35023 ft | 422 kts | 161° |
| 2026-05-07 18:26 | 50.83110 | 17.16294 | 35014 ft | 417 kts | 161° |
| 2026-05-07 18:27 | 50.77755 | 17.19718 | 35015 ft | 415 kts | 161° |
| 2026-05-07 18:27 | 50.72405 | 17.23122 | 35016 ft | 415 kts | 161° |
| 2026-05-07 18:28 | 50.67039 | 17.26525 | 35010 ft | 415 kts | 161° |
| 2026-05-07 18:28 | 50.61679 | 17.29928 | 35010 ft | 416 kts | 161° |
| 2026-05-07 18:29 | 50.56316 | 17.33326 | 34998 ft | 416 kts | 161° |
| 2026-05-07 18:29 | 50.50952 | 17.36711 | 34998 ft | 415 kts | 161° |
| 2026-05-07 18:30 | 50.45574 | 17.40086 | 34964 ft | 415 kts | 162° |
| 2026-05-07 18:30 | 50.40244 | 17.43435 | 34990 ft | 413 kts | 162° |
| 2026-05-07 18:31 | 50.34920 | 17.46761 | 34989 ft | 412 kts | 162° |
| 2026-05-07 18:31 | 50.29590 | 17.50068 | 34987 ft | 412 kts | 162° |
| 2026-05-07 18:32 | 50.24156 | 17.52753 | 34983 ft | 408 kts | 170° |
| 2026-05-07 18:32 | 50.18568 | 17.54712 | 34977 ft | 413 kts | 170° |
| 2026-05-07 18:33 | 50.12958 | 17.56686 | 34976 ft | 413 kts | 170° |
| 2026-05-07 18:33 | 50.07352 | 17.58670 | 34972 ft | 413 kts | 170° |
| 2026-05-07 18:34 | 50.01750 | 17.60655 | 34937 ft | 411 kts | 171° |
| 2026-05-07 18:34 | 49.96225 | 17.62606 | 34956 ft | 412 kts | 171° |
| 2026-05-07 18:35 | 49.90600 | 17.64585 | 34964 ft | 412 kts | 171° |
| 2026-05-07 18:35 | 49.85008 | 17.66553 | 34966 ft | 412 kts | 171° |
| 2026-05-07 18:36 | 49.79452 | 17.68499 | 34964 ft | 412 kts | 171° |
| 2026-05-07 18:36 | 49.73832 | 17.70459 | 34959 ft | 412 kts | 171° |
| 2026-05-07 18:37 | 49.68237 | 17.72409 | 34955 ft | 411 kts | 171° |
| 2026-05-07 18:37 | 49.62651 | 17.74349 | 34954 ft | 412 kts | 171° |
| 2026-05-07 18:38 | 49.57093 | 17.76282 | 34963 ft | 412 kts | 171° |
| 2026-05-07 18:38 | 49.51501 | 17.78220 | 34962 ft | 412 kts | 171° |
| 2026-05-07 18:39 | 49.45897 | 17.80156 | 34959 ft | 414 kts | 171° |
| 2026-05-07 18:39 | 49.40282 | 17.82092 | 34957 ft | 414 kts | 171° |
| 2026-05-07 18:40 | 49.34666 | 17.84023 | 34953 ft | 414 kts | 171° |
| 2026-05-07 18:40 | 49.29047 | 17.85951 | 34956 ft | 414 kts | 171° |
| 2026-05-07 18:41 | 49.23413 | 17.87879 | 34946 ft | 416 kts | 171° |
| 2026-05-07 18:41 | 49.17736 | 17.89819 | 34959 ft | 419 kts | 171° |
| 2026-05-07 18:42 | 49.12045 | 17.91757 | 34958 ft | 419 kts | 171° |
| 2026-05-07 18:42 | 49.06385 | 17.93683 | 34951 ft | 412 kts | 171° |
| 2026-05-07 18:43 | 49.00865 | 17.96237 | 34959 ft | 420 kts | 160° |
| 2026-05-07 18:43 | 48.95627 | 18.00373 | 34959 ft | 425 kts | 157° |
| 2026-05-07 18:44 | 48.90394 | 18.04592 | 34970 ft | 425 kts | 157° |
| 2026-05-07 18:44 | 48.85147 | 18.08761 | 34973 ft | 425 kts | 157° |
| 2026-05-07 18:45 | 48.79909 | 18.12903 | 34979 ft | 425 kts | 158° |
| 2026-05-07 18:45 | 48.74692 | 18.17015 | 34950 ft | 425 kts | 158° |
| 2026-05-07 18:46 | 48.69462 | 18.21131 | 34974 ft | 424 kts | 158° |
| 2026-05-07 18:46 | 48.64225 | 18.25244 | 34984 ft | 424 kts | 158° |
| 2026-05-07 18:47 | 48.58989 | 18.29346 | 34982 ft | 424 kts | 158° |
| 2026-05-07 18:47 | 48.53750 | 18.33437 | 34982 ft | 423 kts | 158° |
| 2026-05-07 18:48 | 48.48509 | 18.37520 | 34981 ft | 424 kts | 158° |
| 2026-05-07 18:48 | 48.43232 | 18.41618 | 34965 ft | 427 kts | 158° |
| 2026-05-07 18:49 | 48.37989 | 18.45690 | 34985 ft | 423 kts | 158° |
| 2026-05-07 18:49 | 48.32750 | 18.49741 | 34987 ft | 424 kts | 158° |
| 2026-05-07 18:50 | 48.27506 | 18.53788 | 34993 ft | 424 kts | 158° |
| 2026-05-07 18:50 | 48.22258 | 18.57833 | 34989 ft | 424 kts | 158° |
| 2026-05-07 18:51 | 48.16979 | 18.61887 | 34996 ft | 428 kts | 158° |
| 2026-05-07 18:51 | 48.11684 | 18.65948 | 34969 ft | 428 kts | 159° |
| 2026-05-07 18:52 | 48.06418 | 18.69981 | 34987 ft | 423 kts | 159° |
| 2026-05-07 18:52 | 48.01174 | 18.73982 | 35000 ft | 423 kts | 159° |
| 2026-05-07 18:53 | 47.95925 | 18.77975 | 34990 ft | 425 kts | 159° |
| 2026-05-07 18:53 | 47.90637 | 18.81987 | 35002 ft | 427 kts | 159° |
| 2026-05-07 18:54 | 47.85371 | 18.85973 | 35004 ft | 427 kts | 159° |
| 2026-05-07 18:54 | 47.80076 | 18.89974 | 34982 ft | 426 kts | 159° |
| 2026-05-07 18:55 | 47.74777 | 18.93972 | 35004 ft | 427 kts | 159° |
| 2026-05-07 18:55 | 47.69475 | 18.97955 | 35004 ft | 429 kts | 159° |
| 2026-05-07 18:56 | 47.64140 | 19.01961 | 35016 ft | 429 kts | 159° |
| 2026-05-07 18:56 | 47.58813 | 19.05964 | 35020 ft | 429 kts | 159° |
| 2026-05-07 18:57 | 47.53487 | 19.09946 | 35035 ft | 429 kts | 159° |
| 2026-05-07 18:57 | 47.49046 | 19.13265 | 35009 ft | 431 kts | 159° |
| 2026-05-07 18:58 | 47.43643 | 19.17283 | 35028 ft | 436 kts | 160° |
| 2026-05-07 18:58 | 47.38214 | 19.21319 | 35037 ft | 437 kts | 160° |
| 2026-05-07 18:59 | 47.32785 | 19.25340 | 35040 ft | 437 kts | 160° |
| 2026-05-07 18:59 | 47.27354 | 19.29355 | 35047 ft | 436 kts | 160° |
| 2026-05-07 19:00 | 47.21918 | 19.33362 | 35030 ft | 436 kts | 160° |
| 2026-05-07 19:00 | 47.16469 | 19.37367 | 35036 ft | 440 kts | 159° |
| 2026-05-07 19:01 | 47.11008 | 19.41378 | 35071 ft | 438 kts | 159° |
| 2026-05-07 19:01 | 47.05565 | 19.45367 | 35038 ft | 439 kts | 159° |
| 2026-05-07 19:02 | 47.00102 | 19.49360 | 35035 ft | 439 kts | 159° |
| 2026-05-07 19:02 | 46.94631 | 19.53345 | 35037 ft | 441 kts | 160° |
| 2026-05-07 19:03 | 46.89146 | 19.57334 | 35040 ft | 439 kts | 159° |
| 2026-05-07 19:03 | 46.83669 | 19.61310 | 35065 ft | 438 kts | 159° |
| 2026-05-07 19:04 | 46.78239 | 19.65244 | 35048 ft | 432 kts | 159° |
| 2026-05-07 19:04 | 46.72789 | 19.69173 | 35030 ft | 440 kts | 159° |
| 2026-05-07 19:05 | 46.67270 | 19.73152 | 35010 ft | 444 kts | 159° |
| 2026-05-07 19:05 | 46.61738 | 19.77133 | 35009 ft | 444 kts | 159° |
| 2026-05-07 19:06 | 46.56208 | 19.81098 | 34996 ft | 444 kts | 159° |
| 2026-05-07 19:06 | 46.47903 | 19.87039 | 35005 ft | 443 kts | 159° |
| 2026-05-07 19:07 | 46.42390 | 19.90960 | 35004 ft | 445 kts | 159° |
| 2026-05-07 19:07 | 46.36825 | 19.94918 | 35008 ft | 445 kts | 159° |
| 2026-05-07 19:08 | 46.31269 | 19.98870 | 35008 ft | 445 kts | 159° |
| 2026-05-07 19:08 | 46.25709 | 20.02820 | 35008 ft | 445 kts | 159° |
| 2026-05-07 19:09 | 46.20142 | 20.06756 | 35000 ft | 446 kts | 159° |
| 2026-05-07 19:09 | 46.14527 | 20.10529 | 35008 ft | 444 kts | 162° |
| 2026-05-07 19:10 | 46.08814 | 20.13942 | 35007 ft | 444 kts | 163° |
| 2026-05-07 19:10 | 46.03104 | 20.17338 | 35009 ft | 444 kts | 163° |
| 2026-05-07 19:11 | 45.97381 | 20.20741 | 34994 ft | 445 kts | 162° |
| 2026-05-07 19:11 | 45.91695 | 20.24118 | 35003 ft | 445 kts | 162° |
| 2026-05-07 19:12 | 45.85969 | 20.27506 | 35012 ft | 445 kts | 163° |
| 2026-05-07 19:12 | 45.80251 | 20.30888 | 35007 ft | 445 kts | 162° |
| 2026-05-07 19:13 | 45.74522 | 20.34266 | 34999 ft | 445 kts | 163° |
| 2026-05-07 19:13 | 45.68800 | 20.37632 | 35011 ft | 445 kts | 162° |
| 2026-05-07 19:14 | 45.63063 | 20.40998 | 35005 ft | 445 kts | 162° |
| 2026-05-07 19:14 | 45.57322 | 20.44353 | 35010 ft | 445 kts | 162° |
| 2026-05-07 19:15 | 45.51580 | 20.47708 | 35002 ft | 446 kts | 162° |
| 2026-05-07 19:15 | 45.45842 | 20.51062 | 35013 ft | 446 kts | 162° |
| 2026-05-07 19:16 | 45.40102 | 20.54403 | 35022 ft | 446 kts | 163° |
| 2026-05-07 19:16 | 45.34355 | 20.57733 | 35014 ft | 446 kts | 162° |
| 2026-05-07 19:17 | 45.28606 | 20.61066 | 35012 ft | 446 kts | 162° |
| 2026-05-07 19:17 | 45.22849 | 20.64393 | 35022 ft | 447 kts | 162° |
| 2026-05-07 19:18 | 45.17084 | 20.67716 | 35022 ft | 447 kts | 162° |
| 2026-05-07 19:18 | 45.11360 | 20.71008 | 35026 ft | 447 kts | 162° |
| 2026-05-07 19:19 | 45.05588 | 20.74321 | 35013 ft | 447 kts | 162° |
| 2026-05-07 19:19 | 44.99792 | 20.77646 | 35023 ft | 450 kts | 162° |
| 2026-05-07 19:20 | 44.93997 | 20.80963 | 35036 ft | 449 kts | 163° |
| 2026-05-07 19:20 | 44.88201 | 20.84268 | 35031 ft | 449 kts | 163° |
| 2026-05-07 19:21 | 44.82405 | 20.87566 | 35042 ft | 449 kts | 163° |
| 2026-05-07 19:21 | 44.76603 | 20.90858 | 35045 ft | 449 kts | 163° |
| 2026-05-07 19:22 | 44.70780 | 20.94161 | 35039 ft | 452 kts | 162° |
| 2026-05-07 19:22 | 44.64953 | 20.97462 | 35041 ft | 452 kts | 162° |
| 2026-05-07 19:23 | 44.59122 | 21.00753 | 35030 ft | 452 kts | 163° |
| 2026-05-07 19:23 | 44.53265 | 21.04051 | 35039 ft | 453 kts | 163° |
| 2026-05-07 19:24 | 44.47409 | 21.07340 | 35041 ft | 453 kts | 163° |
| 2026-05-07 19:24 | 44.41555 | 21.10623 | 35038 ft | 453 kts | 162° |
| 2026-05-07 19:25 | 44.35724 | 21.13886 | 35031 ft | 455 kts | 163° |
| 2026-05-07 19:25 | 44.29832 | 21.17174 | 35039 ft | 456 kts | 163° |
| 2026-05-07 19:26 | 44.23946 | 21.20452 | 35043 ft | 455 kts | 163° |
| 2026-05-07 19:26 | 44.18055 | 21.23724 | 35042 ft | 455 kts | 163° |
| 2026-05-07 19:27 | 44.12158 | 21.26996 | 35037 ft | 458 kts | 163° |
| 2026-05-07 19:27 | 44.06232 | 21.30278 | 35043 ft | 457 kts | 163° |
| 2026-05-07 19:28 | 44.00312 | 21.33544 | 35053 ft | 457 kts | 163° |
| 2026-05-07 19:28 | 43.94392 | 21.36809 | 35047 ft | 457 kts | 163° |
| 2026-05-07 19:29 | 43.88463 | 21.40068 | 35046 ft | 459 kts | 163° |
| 2026-05-07 19:29 | 43.82530 | 21.43321 | 35050 ft | 459 kts | 163° |
| 2026-05-07 19:30 | 43.76619 | 21.46559 | 35052 ft | 459 kts | 163° |
| 2026-05-07 19:30 | 43.70674 | 21.49806 | 35036 ft | 459 kts | 163° |
| 2026-05-07 19:31 | 43.64718 | 21.53052 | 35052 ft | 460 kts | 163° |
| 2026-05-07 19:31 | 43.58759 | 21.56295 | 35055 ft | 460 kts | 163° |
| 2026-05-07 19:32 | 43.52797 | 21.59531 | 35071 ft | 461 kts | 163° |
| 2026-05-07 19:32 | 43.46803 | 21.62777 | 35064 ft | 462 kts | 163° |
| 2026-05-07 19:33 | 43.40810 | 21.66016 | 35074 ft | 462 kts | 163° |
| 2026-05-07 19:33 | 43.34808 | 21.69256 | 35082 ft | 463 kts | 163° |
| 2026-05-07 19:34 | 43.28813 | 21.72485 | 35079 ft | 462 kts | 163° |
| 2026-05-07 19:34 | 43.22840 | 21.75689 | 35073 ft | 465 kts | 163° |
| 2026-05-07 19:35 | 43.16818 | 21.78916 | 35077 ft | 465 kts | 163° |
| 2026-05-07 19:35 | 43.10790 | 21.82141 | 35075 ft | 464 kts | 163° |
| 2026-05-07 19:36 | 43.04768 | 21.85357 | 35066 ft | 465 kts | 164° |
| 2026-05-07 19:36 | 42.98707 | 21.88583 | 35076 ft | 468 kts | 164° |
| 2026-05-07 19:37 | 42.92630 | 21.91811 | 35086 ft | 468 kts | 164° |
| 2026-05-07 19:37 | 42.86556 | 21.95032 | 35091 ft | 468 kts | 164° |
| 2026-05-07 19:38 | 42.81498 | 21.97710 | 35085 ft | 471 kts | 165° |
| 2026-05-07 19:38 | 42.74348 | 22.01485 | 35087 ft | 472 kts | 165° |
| 2026-05-07 19:39 | 42.69254 | 22.04171 | 35091 ft | 472 kts | 165° |
| 2026-05-07 19:39 | 42.63134 | 22.07390 | 35107 ft | 472 kts | 165° |
| 2026-05-07 19:40 | 42.57011 | 22.10604 | 35118 ft | 471 kts | 165° |
| 2026-05-07 19:40 | 42.50888 | 22.13811 | 35116 ft | 472 kts | 165° |
| 2026-05-07 19:41 | 42.44756 | 22.17015 | 35121 ft | 473 kts | 165° |
| 2026-05-07 19:41 | 42.38607 | 22.20223 | 35114 ft | 476 kts | 165° |
| 2026-05-07 19:42 | 42.32443 | 22.23422 | 35127 ft | 475 kts | 166° |
| 2026-05-07 19:42 | 42.26063 | 22.25465 | 35127 ft | 466 kts | 177° |
| 2026-05-07 19:43 | 42.19673 | 22.26924 | 35108 ft | 466 kts | 178° |
| 2026-05-07 19:43 | 42.13234 | 22.28422 | 35124 ft | 471 kts | 178° |
| 2026-05-07 19:44 | 42.06771 | 22.29943 | 35129 ft | 471 kts | 178° |
| 2026-05-07 19:44 | 42.00311 | 22.31461 | 35129 ft | 471 kts | 178° |
| 2026-05-07 19:45 | 41.93819 | 22.32980 | 35120 ft | 474 kts | 179° |
| 2026-05-07 19:45 | 41.87353 | 22.34491 | 35118 ft | 475 kts | 179° |
| 2026-05-07 19:46 | 41.80848 | 22.36008 | 35119 ft | 475 kts | 179° |
| 2026-05-07 19:46 | 41.74312 | 22.37524 | 35113 ft | 479 kts | 180° |
| 2026-05-07 19:47 | 41.67750 | 22.39045 | 35115 ft | 479 kts | 180° |
| 2026-05-07 19:47 | 41.61184 | 22.40574 | 35118 ft | 479 kts | 180° |
| 2026-05-07 19:48 | 41.54595 | 22.42094 | 35105 ft | 483 kts | 180° |
| 2026-05-07 19:48 | 41.47971 | 22.43623 | 35114 ft | 483 kts | 180° |
| 2026-05-07 19:49 | 41.41349 | 22.45151 | 35121 ft | 482 kts | 180° |
| 2026-05-07 19:49 | 41.34720 | 22.46669 | 35101 ft | 486 kts | 180° |
| 2026-05-07 19:50 | 41.28055 | 22.48198 | 35112 ft | 486 kts | 180° |
| 2026-05-07 19:50 | 41.21390 | 22.49727 | 35113 ft | 486 kts | 180° |
| 2026-05-07 19:51 | 41.14734 | 22.51247 | 35101 ft | 485 kts | 180° |
| 2026-05-07 19:51 | 41.11411 | 22.52261 | 35105 ft | 496 kts | 173° |
| 2026-05-07 19:51 | 41.08103 | 22.53612 | 35112 ft | 497 kts | 172° |
| 2026-05-07 19:52 | 41.01512 | 22.56396 | 35112 ft | 498 kts | 172° |
| 2026-05-07 19:52 | 40.94914 | 22.59150 | 35088 ft | 497 kts | 172° |
| 2026-05-07 19:53 | 40.88319 | 22.61881 | 35101 ft | 496 kts | 173° |
| 2026-05-07 19:53 | 40.81727 | 22.64607 | 35109 ft | 496 kts | 173° |
| 2026-05-07 19:54 | 40.75138 | 22.67331 | 35112 ft | 496 kts | 173° |
| 2026-05-07 19:54 | 40.68553 | 22.70045 | 35106 ft | 496 kts | 173° |
| 2026-05-07 19:55 | 40.61958 | 22.72758 | 35108 ft | 496 kts | 173° |
| 2026-05-07 19:55 | 40.55373 | 22.75460 | 35109 ft | 496 kts | 173° |
| 2026-05-07 19:56 | 40.48784 | 22.78156 | 35110 ft | 496 kts | 173° |
| 2026-05-07 19:56 | 40.42160 | 22.80860 | 35112 ft | 500 kts | 173° |
| 2026-05-07 19:57 | 40.35509 | 22.83580 | 35111 ft | 500 kts | 173° |
| 2026-05-07 19:57 | 40.28907 | 22.86269 | 35110 ft | 500 kts | 173° |
| 2026-05-07 19:58 | 40.22273 | 22.88965 | 35108 ft | 499 kts | 173° |
| 2026-05-07 19:58 | 40.15644 | 22.91651 | 35111 ft | 499 kts | 173° |
| 2026-05-07 19:59 | 40.09014 | 22.94334 | 35117 ft | 498 kts | 173° |
| 2026-05-07 19:59 | 40.02381 | 22.97005 | 35112 ft | 499 kts | 173° |
| 2026-05-07 20:00 | 39.95748 | 22.99681 | 35112 ft | 499 kts | 173° |
| 2026-05-07 20:00 | 39.89101 | 23.02352 | 35113 ft | 499 kts | 173° |
| 2026-05-07 20:01 | 39.82505 | 23.05001 | 35099 ft | 498 kts | 172° |
| 2026-05-07 20:01 | 39.75866 | 23.07659 | 35117 ft | 495 kts | 173° |
| 2026-05-07 20:02 | 39.69321 | 23.10271 | 35116 ft | 495 kts | 172° |
| 2026-05-07 20:02 | 39.62689 | 23.12916 | 35119 ft | 502 kts | 172° |
| 2026-05-07 20:03 | 39.56036 | 23.15567 | 35110 ft | 498 kts | 172° |
| 2026-05-07 20:03 | 39.49409 | 23.18206 | 35120 ft | 498 kts | 172° |
| 2026-05-07 20:04 | 39.42780 | 23.20835 | 35125 ft | 498 kts | 172° |
| 2026-05-07 20:04 | 39.36155 | 23.23453 | 35106 ft | 498 kts | 172° |
| 2026-05-07 20:05 | 39.29525 | 23.26069 | 35121 ft | 497 kts | 172° |
| 2026-05-07 20:05 | 39.22892 | 23.28680 | 35131 ft | 499 kts | 172° |
| 2026-05-07 20:06 | 39.16258 | 23.31293 | 35125 ft | 499 kts | 172° |
| 2026-05-07 20:06 | 39.09609 | 23.33905 | 35121 ft | 499 kts | 172° |
| 2026-05-07 20:07 | 39.02964 | 23.36506 | 35127 ft | 499 kts | 172° |
| 2026-05-07 20:07 | 38.96313 | 23.39108 | 35129 ft | 500 kts | 172° |
| 2026-05-07 20:08 | 38.89655 | 23.41706 | 35120 ft | 500 kts | 171° |
| 2026-05-07 20:08 | 38.82971 | 23.44307 | 35130 ft | 504 kts | 171° |
| 2026-05-07 20:09 | 38.76267 | 23.46916 | 35132 ft | 503 kts | 171° |
| 2026-05-07 20:10 | 38.66236 | 23.50803 | 35128 ft | 505 kts | 171° |
| 2026-05-07 20:10 | 38.59520 | 23.53406 | 35138 ft | 503 kts | 171° |
| 2026-05-07 20:11 | 38.52824 | 23.55986 | 35140 ft | 503 kts | 171° |
| 2026-05-07 20:11 | 38.46128 | 23.58565 | 35160 ft | 503 kts | 171° |
| 2026-05-07 20:12 | 38.39434 | 23.61140 | 35153 ft | 503 kts | 171° |
| 2026-05-07 20:12 | 38.32727 | 23.63712 | 35153 ft | 503 kts | 171° |
| 2026-05-07 20:13 | 38.26019 | 23.66278 | 35156 ft | 503 kts | 171° |
| 2026-05-07 20:13 | 38.19319 | 23.68839 | 35151 ft | 502 kts | 171° |
| 2026-05-07 20:14 | 38.12616 | 23.71402 | 35152 ft | 502 kts | 171° |
| 2026-05-07 20:14 | 38.05920 | 23.73964 | 35151 ft | 502 kts | 171° |
| 2026-05-07 20:15 | 37.99216 | 23.76517 | 35154 ft | 505 kts | 171° |
| 2026-05-07 20:15 | 37.92501 | 23.79062 | 35167 ft | 503 kts | 170° |
| 2026-05-07 20:16 | 37.85792 | 23.80983 | 35169 ft | 493 kts | 180° |
| 2026-05-07 20:16 | 37.78997 | 23.82056 | 35167 ft | 492 kts | 181° |
| 2026-05-07 20:17 | 37.72198 | 23.83124 | 35159 ft | 492 kts | 180° |
| 2026-05-07 20:17 | 37.65399 | 23.84206 | 35159 ft | 492 kts | 180° |
| 2026-05-07 20:18 | 37.58608 | 23.85288 | 35156 ft | 492 kts | 180° |
| 2026-05-07 20:18 | 37.51821 | 23.86377 | 35136 ft | 493 kts | 180° |
| 2026-05-07 20:19 | 37.44998 | 23.87464 | 35144 ft | 494 kts | 180° |
| 2026-05-07 20:19 | 37.38225 | 23.88556 | 35145 ft | 487 kts | 180° |
| 2026-05-07 20:20 | 37.31493 | 23.89626 | 35150 ft | 492 kts | 180° |
| 2026-05-07 20:20 | 37.25817 | 23.90529 | 35147 ft | 494 kts | 180° |
| 2026-05-07 20:21 | 37.18995 | 23.91616 | 35146 ft | 494 kts | 180° |
| 2026-05-07 20:21 | 37.12171 | 23.92699 | 35146 ft | 494 kts | 180° |
| 2026-05-07 20:21 | 37.07683 | 23.93410 | 34798 ft | 490 kts | 180° |
| 2026-05-07 20:22 | 37.05392 | 23.93772 | 34589 ft | 492 kts | 180° |
| 2026-05-07 20:22 | 37.02001 | 23.94308 | 34109 ft | 490 kts | 181° |
| 2026-05-07 20:22 | 36.98618 | 23.94839 | 33401 ft | 490 kts | 181° |
| 2026-05-07 20:22 | 36.95228 | 23.95373 | 32680 ft | 491 kts | 181° |
| 2026-05-07 20:23 | 36.91827 | 23.95907 | 31959 ft | 493 kts | 181° |
| 2026-05-07 20:23 | 36.88415 | 23.96443 | 31243 ft | 495 kts | 181° |
| 2026-05-07 20:23 | 36.84997 | 23.96976 | 30545 ft | 496 kts | 181° |
| 2026-05-07 20:23 | 36.81568 | 23.97509 | 29740 ft | 498 kts | 181° |
| 2026-05-07 20:24 | 36.78132 | 23.98043 | 28984 ft | 497 kts | 180° |
| 2026-05-07 20:24 | 36.74697 | 23.98582 | 28294 ft | 496 kts | 180° |
| 2026-05-07 20:24 | 36.71331 | 23.99110 | 27659 ft | 493 kts | 179° |
| 2026-05-07 20:24 | 36.67938 | 23.99645 | 27014 ft | 490 kts | 179° |
| 2026-05-07 20:25 | 36.64558 | 24.00181 | 26376 ft | 488 kts | 178° |
| 2026-05-07 20:25 | 36.61200 | 24.00709 | 25756 ft | 485 kts | 178° |
| 2026-05-07 20:25 | 36.57861 | 24.01232 | 25117 ft | 482 kts | 178° |
| 2026-05-07 20:25 | 36.54536 | 24.01753 | 24477 ft | 479 kts | 177° |
| 2026-05-07 20:26 | 36.51244 | 24.02267 | 23834 ft | 474 kts | 176° |
| 2026-05-07 20:26 | 36.47991 | 24.02775 | 23120 ft | 469 kts | 176° |
| 2026-05-07 20:26 | 36.44773 | 24.03370 | 22435 ft | 466 kts | 171° |
| 2026-05-07 20:26 | 36.41720 | 24.04675 | 21762 ft | 465 kts | 156° |
| 2026-05-07 20:27 | 36.39034 | 24.06867 | 21142 ft | 462 kts | 141° |
| 2026-05-07 20:27 | 36.36866 | 24.09781 | 20553 ft | 457 kts | 128° |
| 2026-05-07 20:27 | 36.35000 | 24.12937 | 19987 ft | 450 kts | 126° |
| 2026-05-07 20:27 | 36.33177 | 24.16061 | 19441 ft | 444 kts | 127° |
| 2026-05-07 20:28 | 36.31366 | 24.19126 | 18915 ft | 437 kts | 127° |
| 2026-05-07 20:28 | 36.29567 | 24.22137 | 18406 ft | 431 kts | 127° |
| 2026-05-07 20:28 | 36.27790 | 24.25092 | 17851 ft | 424 kts | 128° |
| 2026-05-07 20:28 | 36.26041 | 24.27995 | 17305 ft | 418 kts | 128° |
| 2026-05-07 20:29 | 36.24307 | 24.30851 | 16768 ft | 412 kts | 129° |
| 2026-05-07 20:29 | 36.22311 | 24.33332 | 16256 ft | 402 kts | 146° |
| 2026-05-07 20:29 | 36.19885 | 24.34915 | 15778 ft | 390 kts | 165° |
| 2026-05-07 20:29 | 36.17252 | 24.35467 | 15317 ft | 382 kts | 183° |
| 2026-05-07 20:30 | 36.14649 | 24.35068 | 14880 ft | 375 kts | 196° |
| 2026-05-07 20:30 | 36.12117 | 24.34310 | 14431 ft | 374 kts | 197° |
| 2026-05-07 20:30 | 36.09591 | 24.33532 | 13966 ft | 374 kts | 197° |
| 2026-05-07 20:30 | 36.07056 | 24.32780 | 13450 ft | 375 kts | 196° |
| 2026-05-07 20:31 | 36.04519 | 24.32048 | 12979 ft | 374 kts | 196° |
| 2026-05-07 20:31 | 36.01984 | 24.31332 | 12530 ft | 373 kts | 196° |
| 2026-05-07 20:31 | 35.99459 | 24.30620 | 12063 ft | 372 kts | 195° |
| 2026-05-07 20:31 | 35.96933 | 24.29909 | 11592 ft | 371 kts | 195° |
| 2026-05-07 20:32 | 35.94434 | 24.29210 | 11244 ft | 363 kts | 195° |
| 2026-05-07 20:32 | 35.92016 | 24.28542 | 11015 ft | 350 kts | 195° |
| 2026-05-07 20:32 | 35.89680 | 24.27896 | 10846 ft | 337 kts | 195° |
| 2026-05-07 20:32 | 35.87432 | 24.27272 | 10691 ft | 325 kts | 195° |
| 2026-05-07 20:33 | 35.85268 | 24.26669 | 10549 ft | 313 kts | 196° |
| 2026-05-07 20:33 | 35.83186 | 24.26090 | 10418 ft | 301 kts | 196° |
| 2026-05-07 20:33 | 35.81189 | 24.25534 | 10139 ft | 296 kts | 196° |
| 2026-05-07 20:33 | 35.79178 | 24.24974 | 9697 ft | 296 kts | 196° |
| 2026-05-07 20:34 | 35.77169 | 24.24411 | 9293 ft | 295 kts | 195° |
| 2026-05-07 20:34 | 35.75175 | 24.23852 | 8912 ft | 293 kts | 195° |
| 2026-05-07 20:34 | 35.73159 | 24.23539 | 8490 ft | 295 kts | 175° |
| 2026-05-07 20:34 | 35.71251 | 24.24389 | 8113 ft | 295 kts | 145° |
| 2026-05-07 20:35 | 35.69904 | 24.26253 | 7773 ft | 292 kts | 118° |
| 2026-05-07 20:35 | 35.69297 | 24.28602 | 7450 ft | 288 kts | 98° |
| 2026-05-07 20:35 | 35.68911 | 24.31009 | 7122 ft | 288 kts | 113° |
| 2026-05-07 20:35 | 35.67854 | 24.33087 | 6810 ft | 286 kts | 129° |
| 2026-05-07 20:36 | 35.66545 | 24.34884 | 6622 ft | 277 kts | 135° |
| 2026-05-07 20:36 | 35.65151 | 24.36448 | 6411 ft | 266 kts | 140° |
| 2026-05-07 20:36 | 35.63693 | 24.37805 | 6164 ft | 258 kts | 146° |
| 2026-05-07 20:36 | 35.62205 | 24.38949 | 6000 ft | 247 kts | 150° |
| 2026-05-07 20:37 | 35.60720 | 24.39885 | 5832 ft | 233 kts | 155° |
| 2026-05-07 20:37 | 35.59264 | 24.40624 | 5627 ft | 218 kts | 160° |
| 2026-05-07 20:37 | 35.57879 | 24.41166 | 5574 ft | 200 kts | 164° |
| 2026-05-07 20:37 | 35.56551 | 24.41559 | 5321 ft | 194 kts | 168° |
| 2026-05-07 20:38 | 35.55232 | 24.41839 | 5008 ft | 191 kts | 172° |
| 2026-05-07 20:38 | 35.53919 | 24.42016 | 4645 ft | 189 kts | 175° |
| 2026-05-07 20:38 | 35.52609 | 24.42093 | 4298 ft | 188 kts | 178° |
| 2026-05-07 20:38 | 35.51322 | 24.42067 | 4027 ft | 188 kts | 181° |
| 2026-05-07 20:39 | 35.50002 | 24.41935 | 3960 ft | 189 kts | 185° |
| 2026-05-07 20:39 | 35.48720 | 24.41703 | 3969 ft | 189 kts | 188° |
| 2026-05-07 20:39 | 35.47418 | 24.41359 | 3978 ft | 189 kts | 192° |
| 2026-05-07 20:39 | 35.46173 | 24.40893 | 3972 ft | 190 kts | 202° |
| 2026-05-07 20:40 | 35.45159 | 24.39848 | 3968 ft | 194 kts | 240° |
| 2026-05-07 20:40 | 35.44965 | 24.38253 | 3756 ft | 197 kts | 282° |
| 2026-05-07 20:40 | 35.45602 | 24.36774 | 3465 ft | 197 kts | 301° |
| 2026-05-07 20:40 | 35.46274 | 24.35316 | 3137 ft | 196 kts | 295° |
| 2026-05-07 20:41 | 35.46855 | 24.33805 | 2792 ft | 195 kts | 292° |
| 2026-05-07 20:41 | 35.47390 | 24.32276 | 2465 ft | 195 kts | 291° |
| 2026-05-07 20:41 | 35.47906 | 24.30754 | 2199 ft | 189 kts | 291° |
| 2026-05-07 20:41 | 35.48379 | 24.29344 | 2174 ft | 167 kts | 291° |
| 2026-05-07 20:42 | 35.48805 | 24.28052 | 2171 ft | 162 kts | 290° |
| 2026-05-07 20:42 | 35.49225 | 24.26770 | 2191 ft | 162 kts | 290° |
| 2026-05-07 20:42 | 35.49655 | 24.25493 | 2051 ft | 161 kts | 290° |
| 2026-05-07 20:42 | 35.50073 | 24.24221 | 1810 ft | 160 kts | 290° |
| 2026-05-07 20:43 | 35.50486 | 24.22955 | 1574 ft | 160 kts | 290° |
| 2026-05-07 20:43 | 35.50942 | 24.21713 | 1375 ft | 159 kts | 293° |
| 2026-05-07 20:43 | 35.51370 | 24.20470 | 1174 ft | 157 kts | 291° |
| 2026-05-07 20:43 | 35.51778 | 24.19231 | 991 ft | 156 kts | 291° |
| 2026-05-07 20:44 | 35.52182 | 24.18007 | 763 ft | 154 kts | 291° |
| 2026-05-07 20:44 | 35.52578 | 24.16796 | 556 ft | 152 kts | 292° |
| 2026-05-07 20:44 | 35.52947 | 24.15661 | 499 ft | 128 kts | 291° |
| 2026-05-07 20:44 | 35.53199 | 24.14887 | 493 ft | 69 kts | 292° |
| 2026-05-07 20:45 | 35.53334 | 24.14468 | 502 ft | 44 kts | 288° |
| 2026-05-07 20:45 | 35.53398 | 24.14277 | 503 ft | 15 kts | 294° |
| 2026-05-07 20:45 | 35.53454 | 24.14268 | 504 ft | 8 kts | 25° |
| 2026-05-07 20:45 | 35.53512 | 24.14301 | 503 ft | 10 kts | 22° |
| 2026-05-07 20:46 | 35.53583 | 24.14335 | 503 ft | 12 kts | 21° |
| 2026-05-07 20:46 | 35.53642 | 24.14363 | 503 ft | 6 kts | 20° |
| 2026-05-07 20:46 | 35.53683 | 24.14348 | 503 ft | 8 kts | 295° |
| 2026-05-07 20:46 | 35.53699 | 24.14316 | 503 ft | 3 kts | 333° |
| 2026-05-07 20:47 | 35.53725 | 24.14314 | 503 ft | 5 kts | 13° |
| 2026-05-07 20:47 | 35.53759 | 24.14331 | 503 ft | 4 kts | 20° |
| 2026-05-07 20:47 | 35.53773 | 24.14337 | 503 ft | 1 kts | 21° |
| 2026-05-07 20:47 | 35.53774 | 24.14338 | 503 ft | 0 kts | 21° |